Time;durP1;ratioP1;P1;durP2;ratioP2;P2;SDS_P1;SDS_P2;PMS_P1;PMS_P2;Temp;Humidity;BMP_temperature;BMP_pressure;BME280_temperature;BME280_humidity;BME280_pressure;Samples;Min_cycle;Max_cycle;Signal;HPM_P1;HPM_P2
2022/05/24 00:01:01;;;;;;;11.18;5.88;;;14.00;99.90;;;;;;4958870;28;20038;-72
2022/05/24 00:03:27;;;;;;;7.28;5.20;;;14.00;99.90;;;;;;4976124;28;20516;-73
2022/05/24 00:05:53;;;;;;;11.20;5.32;;;14.00;99.90;;;;;;4969828;28;20714;-73
2022/05/24 00:08:18;;;;;;;7.30;5.05;;;14.00;99.90;;;;;;4972396;28;20498;-72
2022/05/24 00:10:44;;;;;;;6.95;4.95;;;14.00;99.90;;;;;;4973443;28;20489;-73
2022/05/24 00:13:11;;;;;;;8.88;5.32;;;14.00;99.90;;;;;;4974808;28;20696;-73
2022/05/24 00:15:38;;;;;;;7.63;5.00;;;14.00;99.90;;;;;;4973676;28;20046;-73
2022/05/24 00:18:16;;;;;;;7.00;4.25;;;14.00;99.90;;;;;;4973781;28;20063;-73
2022/05/24 00:21:03;;;;;;;8.18;4.38;;;14.00;99.90;;;;;;4973019;28;20485;-73
2022/05/24 00:23:49;;;;;;;6.50;4.15;;;14.00;99.90;;;;;;4985454;28;20487;-73
2022/05/24 00:26:35;;;;;;;10.75;3.63;;;14.00;99.90;;;;;;4990611;28;20042;-72
2022/05/24 00:29:20;;;;;;;7.63;3.70;;;14.00;99.90;;;;;;4976283;28;20124;-73
2022/05/24 00:31:47;;;;;;;5.43;3.53;;;14.00;99.90;;;;;;4974625;28;20130;-73
2022/05/24 00:34:12;;;;;;;7.65;3.45;;;14.00;99.90;;;;;;4975689;28;20077;-73
2022/05/24 00:36:38;;;;;;;6.70;3.55;;;13.90;99.90;;;;;;4972591;28;20441;-73
2022/05/24 00:39:04;;;;;;;6.20;3.97;;;14.00;99.90;;;;;;4992139;28;20046;-73
2022/05/24 00:41:34;;;;;;;9.45;7.15;;;14.00;99.90;;;;;;4972122;28;20062;-72
2022/05/24 00:44:06;;;;;;;14.82;9.40;;;14.00;99.90;;;;;;4974528;28;20044;-73
2022/05/24 00:46:42;;;;;;;16.77;12.70;;;14.00;99.90;;;;;;4977840;28;20045;-73
2022/05/24 00:49:24;;;;;;;16.77;13.20;;;13.90;99.90;;;;;;4977421;28;20042;-73
2022/05/24 00:52:08;;;;;;;15.95;13.35;;;14.00;99.90;;;;;;4974027;28;20089;-73
2022/05/24 00:54:34;;;;;;;20.73;13.68;;;13.90;99.90;;;;;;4975463;28;20034;-73
2022/05/24 00:57:10;;;;;;;18.73;14.05;;;14.00;99.90;;;;;;4959973;28;20041;-73
2022/05/24 00:59:49;;;;;;;18.75;13.52;;;13.90;99.90;;;;;;4976422;28;20038;-72
2022/05/24 01:02:15;;;;;;;17.27;13.52;;;13.90;99.90;;;;;;4974651;28;20038;-73
2022/05/24 01:04:41;;;;;;;18.45;13.80;;;13.90;99.90;;;;;;4974452;28;20121;-73
2022/05/24 01:07:06;;;;;;;15.98;13.35;;;13.90;99.90;;;;;;4973713;28;20406;-73
2022/05/24 01:09:54;;;;;;;18.35;13.43;;;13.90;99.90;;;;;;4974006;28;20579;-73
2022/05/24 01:12:29;;;;;;;18.35;13.18;;;13.90;99.90;;;;;;4970856;28;20066;-72
2022/05/24 01:14:57;;;;;;;15.52;12.60;;;13.90;99.90;;;;;;4974188;28;20077;-73
2022/05/24 01:17:23;;;;;;;16.17;12.25;;;13.90;99.90;;;;;;4972780;28;20038;-72
2022/05/24 01:19:49;;;;;;;16.27;12.80;;;13.90;99.90;;;;;;4974228;28;20064;-73
2022/05/24 01:22:59;;;;;;;16.35;13.10;;;13.90;99.90;;;;;;4972953;28;20043;-74
2022/05/24 01:25:52;;;;;;;16.00;13.02;;;13.80;99.90;;;;;;4977201;28;20038;-73
2022/05/24 01:28:29;;;;;;;17.73;12.70;;;13.80;99.90;;;;;;4980336;28;20050;-72
2022/05/24 01:30:56;;;;;;;18.75;12.43;;;13.70;99.90;;;;;;4964713;28;20036;-72
2022/05/24 01:36:11;;;;;;;16.90;12.57;;;13.70;99.90;;;;;;4974425;28;20033;-73
2022/05/24 01:38:47;;;;;;;16.23;11.80;;;13.70;99.90;;;;;;4990147;28;20044;-72
2022/05/24 01:41:26;;;;;;;17.60;12.23;;;13.70;99.90;;;;;;4971266;28;20050;-72
2022/05/24 01:43:55;;;;;;;17.20;11.90;;;13.70;99.90;;;;;;4974861;28;20129;-73
2022/05/24 01:46:34;;;;;;;17.67;12.75;;;13.70;99.90;;;;;;4956222;28;20061;-72
2022/05/24 01:49:06;;;;;;;15.38;12.00;;;13.60;99.90;;;;;;4976610;28;20074;-73
2022/05/24 01:51:49;;;;;;;16.30;12.20;;;13.60;99.90;;;;;;4972615;28;20057;-73
2022/05/24 01:54:15;;;;;;;15.43;13.35;;;13.70;99.90;;;;;;4973995;28;20814;-73
2022/05/24 01:56:49;;;;;;;20.65;13.57;;;13.60;99.90;;;;;;4973851;28;20053;-72
2022/05/24 01:59:17;;;;;;;21.85;13.30;;;13.60;99.90;;;;;;4978005;28;20054;-73
2022/05/24 02:01:54;;;;;;;19.00;13.82;;;13.60;99.90;;;;;;4973419;28;20050;-73
2022/05/24 02:04:22;;;;;;;19.40;13.75;;;13.60;99.90;;;;;;4970038;28;20125;-72
2022/05/24 02:06:59;;;;;;;16.77;13.85;;;13.70;99.90;;;;;;4974733;28;20038;-72
2022/05/24 02:09:25;;;;;;;19.90;13.82;;;13.70;99.90;;;;;;4968650;28;20058;-74
2022/05/24 02:11:52;;;;;;;23.55;16.20;;;13.70;99.90;;;;;;4975049;28;20041;-72
2022/05/24 02:14:26;;;;;;;21.70;16.08;;;13.70;99.90;;;;;;4977024;28;20133;-73
2022/05/24 02:17:03;;;;;;;23.77;17.67;;;13.80;99.90;;;;;;4975415;28;20624;-73
2022/05/24 02:19:35;;;;;;;30.17;19.48;;;13.80;99.90;;;;;;4973443;28;20038;-73
2022/05/24 02:22:06;;;;;;;31.90;21.40;;;13.80;99.90;;;;;;4973791;28;20587;-73
2022/05/24 02:24:32;;;;;;;31.95;23.80;;;13.90;99.90;;;;;;4975615;28;20042;-73
2022/05/24 02:26:58;;;;;;;31.30;24.52;;;13.80;99.90;;;;;;4972628;28;20038;-73
2022/05/24 02:29:24;;;;;;;38.47;26.33;;;13.80;99.90;;;;;;4977248;28;20042;-73
2022/05/24 02:31:50;;;;;;;35.25;27.45;;;13.90;99.90;;;;;;4974306;28;20120;-72
2022/05/24 02:34:16;;;;;;;39.65;26.83;;;13.90;99.90;;;;;;4977776;28;20050;-73
2022/05/24 02:36:42;;;;;;;44.65;29.92;;;13.90;99.90;;;;;;4988456;28;20045;-72
2022/05/24 02:39:08;;;;;;;41.30;30.58;;;13.90;99.90;;;;;;4975175;28;20066;-73
2022/05/24 02:41:36;;;;;;;42.35;30.17;;;14.00;99.90;;;;;;4991979;28;20061;-73
2022/05/24 02:44:13;;;;;;;39.42;29.80;;;14.00;99.90;;;;;;4995610;28;20129;-73
2022/05/24 02:46:42;;;;;;;44.10;32.85;;;14.00;99.90;;;;;;4978895;28;20050;-73
2022/05/24 02:49:08;;;;;;;41.72;31.60;;;14.00;99.90;;;;;;4977220;28;20089;-73
2022/05/24 02:51:35;;;;;;;38.50;30.27;;;14.00;99.90;;;;;;4975700;28;20085;-74
2022/05/24 02:54:00;;;;;;;40.63;30.35;;;14.00;99.90;;;;;;4982044;28;20130;-74
2022/05/24 02:56:27;;;;;;;42.20;30.73;;;14.00;99.90;;;;;;4975186;28;20054;-74
2022/05/24 02:58:53;;;;;;;47.20;31.13;;;14.00;99.90;;;;;;4975456;28;20431;-74
2022/05/24 03:01:25;;;;;;;44.17;31.80;;;14.10;99.90;;;;;;4977578;28;20034;-74
2022/05/24 03:03:53;;;;;;;35.33;29.38;;;14.10;99.90;;;;;;4975506;28;20512;-74
2022/05/24 03:06:20;;;;;;;40.15;30.90;;;14.10;99.90;;;;;;4976400;28;20499;-74
2022/05/24 03:14:17;;;;;;;38.67;31.23;;;14.20;99.90;;;;;;4979278;28;20690;-74
2022/05/24 03:16:54;;;;;;;37.97;30.50;;;14.10;99.90;;;;;;4980344;28;20492;-74
2022/05/24 03:19:21;;;;;;;35.97;30.05;;;14.20;99.90;;;;;;4981616;28;20488;-74
2022/05/24 03:21:47;;;;;;;41.80;30.50;;;14.10;99.90;;;;;;4977179;28;20804;-74
2022/05/24 03:24:13;;;;;;;37.00;30.05;;;14.20;99.90;;;;;;4978626;28;20121;-74
2022/05/24 03:26:38;;;;;;;33.88;28.83;;;14.20;99.90;;;;;;4976889;28;20038;-74
2022/05/24 03:29:05;;;;;;;36.45;28.13;;;14.20;99.90;;;;;;4975926;28;20053;-74
2022/05/24 03:31:32;;;;;;;33.95;28.50;;;14.20;99.90;;;;;;4973953;28;20457;-74
2022/05/24 03:33:58;;;;;;;37.10;28.23;;;14.20;99.90;;;;;;4974704;28;20038;-74
2022/05/24 03:36:24;;;;;;;33.20;28.40;;;14.20;99.90;;;;;;4975848;28;20097;-74
2022/05/24 03:38:49;;;;;;;32.72;26.48;;;14.20;99.90;;;;;;4974937;28;20041;-74
2022/05/24 03:41:15;;;;;;;34.10;26.98;;;14.20;99.90;;;;;;4979465;28;20089;-74
2022/05/24 03:43:41;;;;;;;31.02;26.35;;;14.20;99.90;;;;;;4974903;28;20109;-74
2022/05/24 03:46:10;;;;;;;34.08;26.50;;;14.20;99.90;;;;;;4976459;28;20511;-74
2022/05/24 03:48:36;;;;;;;36.88;25.65;;;14.20;99.90;;;;;;4975819;28;20109;-74
2022/05/24 03:51:03;;;;;;;30.45;24.15;;;14.20;99.90;;;;;;4957904;28;20046;-74
2022/05/24 03:53:30;;;;;;;32.33;25.58;;;14.20;99.90;;;;;;4976362;28;20484;-74
2022/05/24 03:55:56;;;;;;;34.53;25.60;;;14.20;99.90;;;;;;4975693;28;20404;-74
2022/05/24 03:58:23;;;;;;;29.48;24.50;;;14.20;99.90;;;;;;4972129;28;20035;-74
2022/05/24 04:00:49;;;;;;;33.15;25.52;;;14.20;99.90;;;;;;4974235;28;20419;-74
2022/05/24 04:03:15;;;;;;;34.15;23.95;;;14.20;99.90;;;;;;4976457;28;20395;-74
2022/05/24 04:05:41;;;;;;;33.38;24.17;;;14.20;99.90;;;;;;4974159;28;20047;-74
2022/05/24 04:08:08;;;;;;;31.20;24.42;;;14.20;99.90;;;;;;4971071;28;20038;-74
2022/05/24 04:10:34;;;;;;;31.98;25.02;;;14.20;99.90;;;;;;4974837;28;20050;-74
2022/05/24 04:13:00;;;;;;;29.60;24.05;;;14.20;99.90;;;;;;4957124;28;20125;-74
2022/05/24 04:15:26;;;;;;;30.10;24.90;;;14.20;99.90;;;;;;4976236;28;20096;-74
2022/05/24 04:17:53;;;;;;;32.72;24.27;;;14.30;99.90;;;;;;4974171;28;20042;-74
2022/05/24 04:20:21;;;;;;;31.75;25.40;;;14.20;99.90;;;;;;4973731;28;20042;-74
2022/05/24 04:22:47;;;;;;;35.92;25.70;;;14.20;99.90;;;;;;4976871;28;20038;-74
2022/05/24 04:25:14;;;;;;;36.13;26.80;;;14.20;99.90;;;;;;4975092;28;20705;-74
2022/05/24 04:27:40;;;;;;;37.55;26.60;;;14.10;99.90;;;;;;4973874;28;20038;-74
2022/05/24 04:30:07;;;;;;;36.40;26.17;;;14.00;99.90;;;;;;4975866;28;20080;-74
2022/05/24 04:32:33;;;;;;;35.13;26.23;;;14.00;99.90;;;;;;4962264;28;20050;-74
2022/05/24 04:34:59;;;;;;;35.22;26.83;;;14.10;99.90;;;;;;4974838;28;20432;-74
2022/05/24 04:37:25;;;;;;;40.72;27.77;;;14.10;99.90;;;;;;4973397;28;20374;-74
2022/05/24 04:39:50;;;;;;;36.83;28.40;;;14.00;99.90;;;;;;4974252;28;20038;-74
2022/05/24 04:42:19;;;;;;;36.35;27.65;;;14.10;99.90;;;;;;4972196;28;20092;-74
2022/05/24 04:44:46;;;;;;;38.08;28.83;;;14.10;99.90;;;;;;4988381;28;20496;-74
2022/05/24 04:47:13;;;;;;;37.50;28.35;;;14.10;99.90;;;;;;4973530;28;20045;-74
2022/05/24 04:49:46;;;;;;;40.30;28.55;;;14.00;99.90;;;;;;4974550;28;20034;-74
2022/05/24 04:52:13;;;;;;;43.53;27.65;;;14.00;99.90;;;;;;4973654;28;20045;-74
2022/05/24 04:54:40;;;;;;;39.38;28.80;;;14.00;99.90;;;;;;4969911;28;20042;-74
2022/05/24 04:57:07;;;;;;;40.25;26.55;;;14.00;99.90;;;;;;4968900;28;20046;-74
2022/05/24 04:59:33;;;;;;;40.28;27.75;;;14.00;99.90;;;;;;4969965;28;20030;-74
2022/05/24 05:01:59;;;;;;;37.85;26.63;;;14.10;99.90;;;;;;4992239;28;20038;-74
2022/05/24 05:04:25;;;;;;;32.75;25.90;;;14.10;99.90;;;;;;4974461;28;20049;-74
2022/05/24 05:06:51;;;;;;;38.28;26.92;;;14.10;99.90;;;;;;4971689;28;20050;-74
2022/05/24 05:09:19;;;;;;;32.88;26.38;;;14.10;99.90;;;;;;4966005;28;20060;-73
2022/05/24 05:11:45;;;;;;;39.75;27.25;;;14.10;99.90;;;;;;4971572;28;20046;-74
2022/05/24 05:14:11;;;;;;;38.70;23.83;;;14.10;99.90;;;;;;4971862;28;20064;-75
2022/05/24 05:16:38;;;;;;;30.63;22.58;;;14.10;99.90;;;;;;4989392;28;20034;-75
2022/05/24 05:19:06;;;;;;;29.63;20.20;;;14.20;99.90;;;;;;4974986;28;20117;-75
2022/05/24 05:21:33;;;;;;;25.27;19.80;;;14.20;99.90;;;;;;4973715;28;20556;-74
2022/05/24 05:24:01;;;;;;;30.52;20.30;;;14.20;99.90;;;;;;4973837;28;20096;-74
2022/05/24 05:26:27;;;;;;;32.88;21.67;;;14.20;99.90;;;;;;4972112;28;20497;-74
2022/05/24 05:28:53;;;;;;;27.20;20.67;;;14.20;99.90;;;;;;4977821;28;20986;-74
2022/05/24 05:31:22;;;;;;;29.00;19.90;;;14.20;99.90;;;;;;4974498;28;20052;-74
2022/05/24 05:33:49;;;;;;;29.52;19.65;;;14.20;99.90;;;;;;4971787;28;20038;-74
2022/05/24 05:36:16;;;;;;;26.98;19.27;;;14.10;99.90;;;;;;4972561;28;20038;-74
2022/05/24 05:38:48;;;;;;;30.98;18.65;;;14.10;99.90;;;;;;4967562;28;20124;-74
2022/05/24 05:41:17;;;;;;;30.25;18.20;;;14.10;99.90;;;;;;4980283;28;20121;-74
2022/05/24 05:43:43;;;;;;;30.95;18.15;;;14.10;99.90;;;;;;4975425;28;20038;-74
2022/05/24 05:46:10;;;;;;;25.05;16.75;;;14.00;99.90;;;;;;4973965;28;20092;-75
2022/05/24 05:48:37;;;;;;;21.45;16.88;;;14.10;99.90;;;;;;4973020;28;20086;-75
2022/05/24 05:51:04;;;;;;;26.45;17.05;;;14.20;99.90;;;;;;4972697;28;20034;-75
2022/05/24 05:53:29;;;;;;;27.05;17.45;;;14.10;99.90;;;;;;4974103;28;20121;-74
2022/05/24 05:55:55;;;;;;;24.60;16.48;;;14.00;99.90;;;;;;4972592;28;20153;-74
2022/05/24 05:58:21;;;;;;;23.13;16.50;;;14.10;99.90;;;;;;4974497;28;20042;-74
2022/05/24 06:00:48;;;;;;;29.05;16.40;;;14.00;99.90;;;;;;4973840;28;20093;-74
2022/05/24 06:03:14;;;;;;;23.90;18.05;;;14.00;99.90;;;;;;4973999;28;20074;-74
2022/05/24 06:05:40;;;;;;;25.90;17.55;;;14.10;99.90;;;;;;4968596;28;20046;-74
2022/05/24 06:08:09;;;;;;;27.00;16.98;;;14.00;99.90;;;;;;4984213;28;20133;-74
2022/05/24 06:10:36;;;;;;;27.38;18.10;;;14.10;99.90;;;;;;4957944;28;20045;-74
2022/05/24 06:13:05;;;;;;;29.75;17.58;;;14.10;99.90;;;;;;4971856;28;20443;-74
2022/05/24 06:15:32;;;;;;;26.73;18.02;;;14.10;99.90;;;;;;4978037;28;20046;-74
2022/05/24 06:17:58;;;;;;;24.42;17.48;;;14.10;99.90;;;;;;4977841;28;20043;-74
2022/05/24 06:20:27;;;;;;;24.50;17.90;;;14.20;99.90;;;;;;4976964;28;20049;-74
2022/05/24 06:22:54;;;;;;;27.58;17.70;;;14.20;99.90;;;;;;4978099;28;20042;-74
2022/05/24 06:25:21;;;;;;;23.77;17.42;;;14.30;99.90;;;;;;4974439;28;20045;-74
2022/05/24 06:27:49;;;;;;;24.02;16.77;;;14.30;99.90;;;;;;4992608;28;20046;-74
2022/05/24 06:30:15;;;;;;;24.42;16.65;;;14.40;99.90;;;;;;4989559;28;20088;-74
2022/05/24 06:32:41;;;;;;;28.75;17.38;;;14.40;99.90;;;;;;4953266;28;20125;-74
2022/05/24 06:35:07;;;;;;;27.77;17.30;;;14.30;99.90;;;;;;4981148;28;20041;-74
2022/05/24 06:37:33;;;;;;;24.27;18.15;;;14.30;99.90;;;;;;4976328;28;20046;-74
2022/05/24 06:39:59;;;;;;;28.10;17.15;;;14.40;99.90;;;;;;4980858;28;20057;-75
2022/05/24 06:42:24;;;;;;;28.58;16.88;;;14.40;99.90;;;;;;4977096;28;20045;-73
2022/05/24 06:44:50;;;;;;;25.10;16.08;;;14.50;99.90;;;;;;4989129;28;20030;-73
2022/05/24 06:47:16;;;;;;;23.88;16.60;;;14.50;99.90;;;;;;4959129;28;20042;-73
2022/05/24 06:49:43;;;;;;;24.10;16.60;;;14.50;99.90;;;;;;4974749;28;20070;-73
2022/05/24 06:52:08;;;;;;;27.60;16.40;;;14.40;99.90;;;;;;4991268;28;20382;-73
2022/05/24 06:54:35;;;;;;;22.98;15.63;;;14.50;99.90;;;;;;4972871;28;20044;-73
2022/05/24 06:57:02;;;;;;;24.52;14.45;;;14.60;99.90;;;;;;4974327;28;20177;-73
2022/05/24 07:02:25;;;;;;;25.88;14.52;;;14.70;99.90;;;;;;4981686;28;20042;-74
2022/05/24 07:05:07;;;;;;;21.88;14.70;;;14.70;99.90;;;;;;4977023;28;20041;-75
2022/05/24 07:07:35;;;;;;;23.23;14.57;;;14.80;99.90;;;;;;4968645;28;21478;-74
2022/05/24 07:10:04;;;;;;;21.33;13.60;;;14.80;99.90;;;;;;4973600;28;20551;-74
2022/05/24 07:12:40;;;;;;;21.25;14.05;;;14.80;99.90;;;;;;4978142;28;20501;-75
2022/05/24 07:15:06;;;;;;;21.95;12.73;;;14.80;99.90;;;;;;4975122;28;20054;-75
2022/05/24 07:17:32;;;;;;;20.83;13.98;;;14.70;99.90;;;;;;4958519;28;20057;-75
2022/05/24 07:19:57;;;;;;;23.08;13.93;;;14.70;99.90;;;;;;4972155;28;20511;-75
2022/05/24 07:22:23;;;;;;;20.17;12.68;;;14.70;99.90;;;;;;4976716;28;20129;-75
2022/05/24 07:24:49;;;;;;;22.15;13.50;;;14.70;99.90;;;;;;4976864;28;20477;-74
2022/05/24 07:27:18;;;;;;;19.27;13.50;;;14.70;99.90;;;;;;4971752;28;20474;-74
2022/05/24 07:29:44;;;;;;;26.00;14.57;;;14.70;99.90;;;;;;4987605;28;20437;-75
2022/05/24 07:32:10;;;;;;;25.25;14.95;;;14.70;99.90;;;;;;4975420;28;20080;-75
2022/05/24 07:34:36;;;;;;;19.63;13.80;;;14.60;99.90;;;;;;4974187;28;20046;-74
2022/05/24 07:37:04;;;;;;;19.35;13.45;;;14.60;99.90;;;;;;4974650;28;20178;-74
2022/05/24 07:39:31;;;;;;;22.35;14.98;;;14.60;99.90;;;;;;4981478;28;20405;-75
2022/05/24 07:47:32;;;;;;;18.67;13.25;;;14.60;99.90;;;;;;4970574;28;20046;-73
2022/05/24 07:49:58;;;;;;;20.48;12.73;;;14.60;99.90;;;;;;4975842;28;20372;-74
2022/05/24 07:52:24;;;;;;;18.40;12.95;;;14.70;99.90;;;;;;4977987;28;20034;-73
2022/05/24 07:54:50;;;;;;;21.33;12.35;;;14.70;99.90;;;;;;4986456;28;20400;-75
2022/05/24 07:57:16;;;;;;;17.48;13.23;;;14.70;99.90;;;;;;4974653;28;20058;-80
2022/05/24 07:59:43;;;;;;;22.30;13.18;;;14.70;99.90;;;;;;4972836;28;20417;-80
2022/05/24 08:02:09;;;;;;;14.30;12.27;;;14.70;99.90;;;;;;4973722;28;20409;-80
2022/05/24 08:04:35;;;;;;;18.15;12.40;;;14.80;99.90;;;;;;4980229;28;20038;-80
2022/05/24 08:07:01;;;;;;;18.98;13.02;;;14.90;99.90;;;;;;4955287;28;20042;-74
2022/05/24 08:09:27;;;;;;;17.35;11.60;;;15.00;99.90;;;;;;4971273;28;20039;-73
2022/05/24 08:11:53;;;;;;;17.15;11.73;;;15.10;99.90;;;;;;4991638;28;20038;-74
2022/05/24 08:14:19;;;;;;;19.27;11.65;;;15.10;99.90;;;;;;4974991;28;20096;-74
2022/05/24 08:16:44;;;;;;;15.25;11.00;;;15.10;99.90;;;;;;4971327;28;20400;-74
2022/05/24 08:19:10;;;;;;;16.15;9.98;;;15.20;99.90;;;;;;4970149;28;20452;-72
2022/05/24 08:21:36;;;;;;;13.52;9.00;;;15.40;99.90;;;;;;4965111;28;20034;-72
2022/05/24 08:24:02;;;;;;;13.18;8.48;;;15.50;99.90;;;;;;4974495;28;20046;-72
2022/05/24 08:26:27;;;;;;;14.10;8.40;;;15.60;99.90;;;;;;4980478;28;20480;-73
2022/05/24 08:28:53;;;;;;;18.95;7.90;;;15.70;99.90;;;;;;4992999;28;20045;-72
2022/05/24 08:31:19;;;;;;;11.82;6.20;;;15.60;99.90;;;;;;4982332;28;20550;-73
2022/05/24 08:33:46;;;;;;;10.98;5.57;;;15.70;99.90;;;;;;4971301;28;20042;-72
2022/05/24 08:36:13;;;;;;;13.63;4.70;;;15.60;99.90;;;;;;4957139;28;20099;-72
2022/05/24 08:38:40;;;;;;;11.07;5.68;;;15.50;99.90;;;;;;4966875;28;20042;-72
2022/05/24 08:41:19;;;;;;;10.23;4.63;;;15.50;99.90;;;;;;4974624;28;20038;-74
2022/05/24 08:43:56;;;;;;;9.82;5.28;;;15.40;99.90;;;;;;4975780;28;20049;-74
2022/05/24 08:49:18;;;;;;;11.88;5.82;;;15.90;99.90;;;;;;4975890;28;20129;-74
2022/05/24 08:51:49;;;;;;;12.23;5.90;;;16.00;99.90;;;;;;4969689;28;20129;-74
2022/05/24 08:54:19;;;;;;;14.00;4.65;;;16.20;99.90;;;;;;4974268;28;20125;-74
2022/05/24 08:56:53;;;;;;;8.95;4.25;;;16.30;99.90;;;;;;4991767;28;20042;-74
2022/05/24 08:59:26;;;;;;;10.52;4.07;;;16.40;99.90;;;;;;4992063;28;20042;-73
2022/05/24 09:01:52;;;;;;;;;;;16.40;99.90;;;;;;4974692;28;20049;-74
2022/05/24 09:04:18;;;;;;;7.72;4.18;;;16.20;99.90;;;;;;4979306;28;19918;-74
2022/05/24 09:06:55;;;;;;;9.90;4.00;;;16.40;99.90;;;;;;4968801;28;20031;-74
2022/05/24 09:09:45;;;;;;;8.38;4.00;;;16.60;99.90;;;;;;4967679;28;20046;-74
2022/05/24 09:12:20;;;;;;;9.20;4.07;;;16.80;99.90;;;;;;4978471;28;20041;-74
2022/05/24 09:15:03;;;;;;;6.68;4.00;;;16.80;99.90;;;;;;4982811;28;20052;-74
2022/05/24 09:17:42;;;;;;;9.02;3.65;;;16.60;99.90;;;;;;4977837;28;20122;-74
2022/05/24 09:20:24;;;;;;;6.25;3.80;;;16.40;99.90;;;;;;4983049;28;20045;-74
2022/05/24 09:23:14;;;;;;;7.95;4.15;;;16.20;99.90;;;;;;4965652;28;20042;-74
2022/05/24 09:26:09;;;;;;;10.40;4.22;;;16.00;99.90;;;;;;4968134;28;20062;-73
2022/05/24 09:28:52;;;;;;;7.72;3.72;;;16.00;99.90;;;;;;4975951;28;20065;-73
2022/05/24 09:31:41;;;;;;;12.32;4.50;;;15.90;99.90;;;;;;4981674;28;20133;-73
2022/05/24 09:34:28;;;;;;;7.05;4.13;;;15.80;99.90;;;;;;4970068;28;20038;-73
2022/05/24 09:37:01;;;;;;;8.80;3.58;;;15.70;99.90;;;;;;4972482;28;20038;-73
2022/05/24 09:39:30;;;;;;;10.93;4.00;;;15.70;99.90;;;;;;4973535;28;20042;-73
2022/05/24 09:42:22;;;;;;;5.78;4.05;;;15.70;99.90;;;;;;4974476;28;20050;-73
2022/05/24 09:45:10;;;;;;;4.83;3.40;;;15.90;99.90;;;;;;4968580;28;20041;-73
2022/05/24 09:47:43;;;;;;;7.95;3.83;;;15.80;99.90;;;;;;4965524;28;20321;-73
2022/05/24 09:50:18;;;;;;;5.68;3.58;;;15.90;99.90;;;;;;4975560;28;20082;-73
2022/05/24 09:53:04;;;;;;;8.07;3.75;;;16.00;99.90;;;;;;4975087;28;20549;-73
2022/05/24 09:55:37;;;;;;;5.25;3.30;;;16.00;99.90;;;;;;4971217;28;20050;-73
2022/05/24 09:58:21;;;;;;;;;;;15.80;99.90;;;;;;4962585;28;20081;-73
2022/05/24 10:00:57;;;;;;;6.28;3.10;;;15.60;99.90;;;;;;4988365;28;19918;-73
2022/05/24 10:03:27;;;;;;;8.38;3.03;;;15.80;99.90;;;;;;4977144;28;20137;-73
2022/05/24 10:06:28;;;;;;;9.65;2.63;;;15.80;99.90;;;;;;4978301;28;20045;-73
2022/05/24 10:09:11;;;;;;;4.93;1.90;;;15.90;99.90;;;;;;4969843;28;20054;-73
2022/05/24 10:11:41;;;;;;;5.25;1.42;;;15.90;99.90;;;;;;4977753;28;20540;-73
2022/05/24 10:14:26;;;;;;;2.42;1.10;;;15.70;99.90;;;;;;4976212;28;20047;-73
2022/05/24 10:17:09;;;;;;;5.85;1.23;;;15.80;99.90;;;;;;4972294;28;20436;-73
2022/05/24 10:20:09;;;;;;;6.25;1.30;;;15.80;99.90;;;;;;5000050;28;20092;-73
2022/05/24 10:23:12;;;;;;;2.85;1.65;;;15.90;99.90;;;;;;4978673;28;20569;-73
2022/05/24 10:26:01;;;;;;;4.57;1.52;;;15.90;99.90;;;;;;4982302;28;20045;-74
2022/05/24 10:28:29;;;;;;;4.47;1.60;;;16.10;99.90;;;;;;4976063;28;20046;-73
2022/05/24 10:31:30;;;;;;;2.90;1.55;;;16.10;99.90;;;;;;4970153;28;20141;-73
2022/05/24 10:40:03;;;;;;;4.53;1.90;;;16.30;99.90;;;;;;4977037;28;20512;-73
2022/05/24 10:43:17;;;;;;;6.07;1.80;;;16.30;99.90;;;;;;4992045;28;20038;-73
2022/05/24 10:45:55;;;;;;;3.17;1.70;;;16.10;99.90;;;;;;4968829;28;20054;-73
2022/05/24 10:48:34;;;;;;;2.58;1.30;;;14.90;99.90;;;;;;4982414;28;20045;-72
2022/05/24 10:51:36;;;;;;;1.42;0.73;;;14.60;99.90;;;;;;4984605;28;20501;-72
2022/05/24 10:54:22;;;;;;;1.95;0.65;;;14.20;99.90;;;;;;4987931;28;20042;-72
2022/05/24 10:57:00;;;;;;;1.65;0.90;;;13.90;99.90;;;;;;4976720;28;20535;-72
2022/05/24 10:59:48;;;;;;;2.20;0.82;;;13.80;99.90;;;;;;4978228;28;20509;-72
2022/05/24 11:02:36;;;;;;;1.65;1.00;;;13.60;99.90;;;;;;4991692;28;20388;-72
2022/05/24 11:05:19;;;;;;;2.33;1.08;;;13.40;99.90;;;;;;4978782;28;20534;-73
2022/05/24 11:07:47;;;;;;;;;;;13.30;99.90;;;;;;4965655;28;20386;-73
2022/05/24 11:10:22;;;;;;;4.80;1.40;;;13.20;99.90;;;;;;4976111;28;20005;-73
2022/05/24 11:12:50;;;;;;;4.10;1.70;;;13.20;99.90;;;;;;4992954;28;20477;-74
2022/05/24 11:15:24;;;;;;;2.08;1.63;;;13.20;99.90;;;;;;4979650;28;20666;-74
2022/05/24 11:17:50;;;;;;;5.13;2.22;;;13.30;99.90;;;;;;4975022;28;20041;-74
2022/05/24 11:20:24;;;;;;;4.55;2.10;;;13.30;99.90;;;;;;4960573;28;20121;-74
2022/05/24 11:23:17;;;;;;;3.05;2.28;;;13.40;99.90;;;;;;4977055;28;20074;-74
2022/05/24 11:25:51;;;;;;;2.88;2.47;;;13.40;99.90;;;;;;4982181;28;20142;-73
2022/05/24 11:28:22;;;;;;;5.35;2.72;;;13.30;99.90;;;;;;4973873;28;20468;-73
2022/05/24 11:30:48;;;;;;;5.82;3.10;;;13.30;99.90;;;;;;4976252;28;20381;-73
2022/05/24 11:33:41;;;;;;;3.85;3.03;;;13.20;99.90;;;;;;4979176;28;20393;-73
2022/05/24 11:36:27;;;;;;;;;;;13.20;99.90;;;;;;4975911;28;20401;-72
2022/05/24 11:38:53;;;;;;;6.60;3.83;;;13.10;99.90;;;;;;4940508;28;20395;-72
2022/05/24 11:41:31;;;;;;;4.50;4.10;;;13.10;99.90;;;;;;4975120;28;20488;-71
2022/05/24 11:44:00;;;;;;;7.35;3.83;;;13.30;99.90;;;;;;4990491;28;20798;-70
2022/05/24 11:46:37;;;;;;;3.90;2.90;;;13.40;99.90;;;;;;4977526;28;20543;-71
2022/05/24 11:49:04;;;;;;;4.82;3.10;;;13.40;99.90;;;;;;4978275;28;20038;-71
2022/05/24 11:51:50;;;;;;;4.43;2.65;;;13.50;99.90;;;;;;4974435;28;20496;-71
2022/05/24 11:54:16;;;;;;;4.32;2.95;;;13.70;99.90;;;;;;4975813;28;20417;-71
2022/05/24 11:56:54;;;;;;;3.53;2.53;;;13.80;99.90;;;;;;4975627;28;20042;-70
2022/05/24 11:59:52;;;;;;;2.03;1.80;;;14.00;99.90;;;;;;4977622;28;20392;-72
2022/05/24 12:02:32;;;;;;;2.47;1.48;;;14.00;99.90;;;;;;4952423;28;20416;-71
2022/05/24 12:07:59;;;;;;;4.47;1.67;;;14.00;99.90;;;;;;4978881;28;20404;-71
2022/05/24 12:10:31;;;;;;;2.97;1.80;;;14.40;99.90;;;;;;4976655;28;20041;-72
2022/05/24 12:12:57;;;;;;;3.42;1.38;;;14.90;99.90;;;;;;4975830;28;20050;-72
2022/05/24 12:15:44;;;;;;;2.97;1.20;;;15.30;99.90;;;;;;4960500;28;20488;-72
2022/05/24 12:18:11;;;;;;;5.07;1.70;;;15.50;99.90;;;;;;4970776;28;20066;-72
2022/05/24 12:20:36;;;;;;;2.67;1.33;;;15.90;99.90;;;;;;4972451;28;20046;-72
2022/05/24 12:23:08;;;;;;;4.00;1.40;;;16.30;99.90;;;;;;4981199;28;20050;-72
2022/05/24 12:26:13;;;;;;;1.90;1.40;;;16.60;99.90;;;;;;4957818;28;20050;-73
2022/05/24 12:28:39;;;;;;;4.68;1.60;;;16.70;99.90;;;;;;4924204;29;20450;-73
2022/05/24 12:31:07;;;;;;;4.30;1.70;;;16.70;99.90;;;;;;4966932;28;20137;-72
2022/05/24 12:33:36;;;;;;;3.70;1.70;;;16.80;99.90;;;;;;4972669;28;20042;-73
2022/05/24 12:36:37;;;;;;;2.33;1.27;;;16.80;99.90;;;;;;4974893;28;20062;-73
2022/05/24 12:39:06;;;;;;;2.45;1.30;;;16.50;99.90;;;;;;4974784;28;20046;-73
2022/05/24 12:41:41;;;;;;;1.40;1.20;;;16.40;99.90;;;;;;4975449;28;20038;-73
2022/05/24 12:44:13;;;;;;;2.95;1.20;;;16.70;99.90;;;;;;4957696;28;20501;-73
2022/05/24 12:46:43;;;;;;;3.60;0.90;;;16.70;99.90;;;;;;4974205;28;20045;-73
2022/05/24 12:49:15;;;;;;;2.03;1.20;;;16.70;99.90;;;;;;4975068;28;20041;-73
2022/05/24 12:51:41;;;;;;;3.97;1.00;;;16.50;99.90;;;;;;4975107;28;20097;-74
2022/05/24 12:54:30;;;;;;;2.60;0.90;;;16.50;99.90;;;;;;4974734;28;20050;-72
2022/05/24 12:57:00;;;;;;;1.40;0.70;;;16.30;99.90;;;;;;4977789;28;20108;-73
2022/05/24 12:59:36;;;;;;;3.90;0.75;;;16.30;99.90;;;;;;4975162;28;20048;-73
2022/05/24 13:02:21;;;;;;;5.13;0.80;;;16.40;99.90;;;;;;4969622;28;20039;-73
2022/05/24 13:04:48;;;;;;;2.38;1.10;;;16.60;99.90;;;;;;4974880;28;20053;-73
2022/05/24 13:07:39;;;;;;;4.00;0.95;;;16.70;99.90;;;;;;4956495;28;20073;-72
2022/05/24 13:10:13;;;;;;;4.18;1.00;;;16.80;99.90;;;;;;4973708;28;20126;-73
2022/05/24 13:12:39;;;;;;;2.85;1.00;;;17.00;99.90;;;;;;4976385;28;20039;-72
2022/05/24 13:15:11;;;;;;;4.85;1.00;;;17.30;99.90;;;;;;4975328;28;20101;-73
2022/05/24 13:17:42;;;;;;;2.92;1.00;;;17.60;99.90;;;;;;4972282;28;20041;-73
2022/05/24 13:20:11;;;;;;;3.35;1.10;;;17.60;99.90;;;;;;4958616;28;20042;-73
2022/05/24 13:22:46;;;;;;;3.13;1.00;;;17.40;99.90;;;;;;4979445;28;20031;-73
2022/05/24 13:25:28;;;;;;;2.47;1.20;;;17.40;99.90;;;;;;4975734;28;20043;-73
2022/05/24 13:27:59;;;;;;;4.65;1.30;;;17.50;99.90;;;;;;4988477;28;20030;-74